メインページ
METAR-TAF:

METAR-TAF

空港 :

ベリーズシティ, ベリーズ

フィリップス・S・W・ゴールドソン国際空港

緯度: 17-32N, 経度: 088-18W, 海抜: 5m

現時点の気象観測

当レポートは37分前の22:00(UTC)に作成
東/北東の風 10kt
気温 31°C
湿度 75%
気圧 1013 hPa
視程10km以上
高度2400ftの雲はほとんどない

METAR: MZBZ 262200Z 06010KT 9999 FEW024 31/26 A2994 Q1013 NOSIG

時間: 16:37 (22:37 UTC)

予報

当レポートは7時間37分前の15:00(UTC)に作成
予報は26日の 18時(UTC)から 27日の 18時(UTC)まで有効
の風 10kt
視程10km以上
高度2200ftの雲は散在している
確率 30% :
27日の 03時(UTC)から 27日の 12時(UTC)まで一時的に
視程: 5000m
高度1500ftの千切れ雲あり
にわか雨

TAF: MZBZ 261500Z 2618/2718 09010KT 9999 SCT022 PROB30 TEMPO 2703/2712 5000 SHRA BKN015

4,000以上の空港の気象観測と天気予報(METAR報とTAF報)

利用可能な観測所は地図上に黄色い丸と赤い丸で示す。

丸の上にカーソルを重ねると観測所名を参照できる。

次にクリックすると気象観測と天気予報を参照できる。

マップの切り替え:黒色「×」印の緑ボタンをクリックして拡大、「-」印の緑ボタンをクリックして縮小、緑色の三角印をクリックして隣りの地図に切り替え


METAR-TAF: